Barysiai Airport


Codes: EYSB/HLJ
Name: Barysiai Airport
City: Barysiai
Country: Lithuania
Elevation: 270 ft.

Photos at Barysiai Airport


   Photos courtesy of SpottingLog. You can add your own sightings and photos by signing up for a free trial today.



No photos found.

Weather at Barysiai Airport


Time (UTC)DescriptionTempratureWindCloud coverageVisibilityPressureHumidity
15-Apr-2024 18:00Few Clouds9°C7 mph, W19%10000m1003hPa54%
15-Apr-2024 21:00Scattered Clouds5°C7 mph, W46%10000m1002hPa65%
16-Apr-2024 00:00Scattered Clouds2°C0 mph, E35%10000m1001hPa78%
16-Apr-2024 03:00Overcast Clouds2°C4 mph, E100%10000m998hPa78%
16-Apr-2024 06:00Broken Clouds4°C9 mph, E83%10000m997hPa70%
16-Apr-2024 09:00Overcast Clouds8°C13 mph, E100%10000m994hPa59%
16-Apr-2024 12:00Light Rain5°C11 mph, SE100%2451m994hPa94%
16-Apr-2024 15:00Moderate Rain4°C7 mph, N100%0m993hPa96%
16-Apr-2024 18:00Light Rain4°C4 mph, NW100%5376m995hPa95%
16-Apr-2024 21:00Light Rain4°C7 mph, NW100%10000m996hPa88%
17-Apr-2024 00:00Overcast Clouds3°C9 mph, W99%10000m998hPa91%
17-Apr-2024 03:00Broken Clouds1°C7 mph, NW64%10000m999hPa94%
17-Apr-2024 06:00Scattered Clouds4°C7 mph, NW41%10000m1001hPa88%
17-Apr-2024 09:00Overcast Clouds5°C4 mph, NW91%10000m1002hPa82%
17-Apr-2024 12:00Overcast Clouds7°C4 mph, NW96%10000m1003hPa68%
17-Apr-2024 15:00Overcast Clouds7°C11 mph, N88%10000m1004hPa69%
17-Apr-2024 18:00Broken Clouds4°C9 mph, N77%10000m1006hPa90%
17-Apr-2024 21:00Overcast Clouds3°C9 mph, N96%10000m1007hPa90%
18-Apr-2024 00:00Overcast Clouds2°C9 mph, N97%10000m1008hPa90%
18-Apr-2024 03:00Overcast Clouds2°C9 mph, N100%10000m1009hPa86%
18-Apr-2024 06:00Overcast Clouds2°C11 mph, N100%10000m1010hPa81%
18-Apr-2024 09:00Overcast Clouds4°C9 mph, N100%10000m1010hPa66%
18-Apr-2024 12:00Overcast Clouds5°C11 mph, N100%10000m1010hPa63%
18-Apr-2024 15:00Overcast Clouds5°C11 mph, N100%10000m1010hPa64%
18-Apr-2024 18:00Light Snow1°C13 mph, N100%0m1010hPa96%
18-Apr-2024 21:00Snow0°C18 mph, N100%34m1007hPa99%
19-Apr-2024 00:00Snow0°C16 mph, N100%28m1006hPa99%
19-Apr-2024 03:00Snow-1°C18 mph, N100%723m1005hPa96%
19-Apr-2024 06:00Light Snow-1°C16 mph, NW100%3599m1004hPa93%
19-Apr-2024 09:00Overcast Clouds1°C16 mph, NW100%10000m1004hPa91%
19-Apr-2024 12:00Overcast Clouds2°C13 mph, N100%10000m1003hPa85%
19-Apr-2024 15:00Overcast Clouds3°C11 mph, NW100%10000m1003hPa80%
19-Apr-2024 18:00Light Snow0°C9 mph, NW100%10000m1005hPa83%
19-Apr-2024 21:00Overcast Clouds-2°C9 mph, W100%10000m1006hPa89%
20-Apr-2024 00:00Overcast Clouds-3°C9 mph, W100%10000m1006hPa92%
20-Apr-2024 03:00Overcast Clouds-3°C9 mph, W100%10000m1008hPa93%
20-Apr-2024 06:00Overcast Clouds0°C13 mph, W95%10000m1010hPa80%
20-Apr-2024 09:00Light Snow3°C13 mph, W97%5962m1011hPa71%
20-Apr-2024 12:00Light Snow4°C16 mph, W98%10000m1013hPa65%
20-Apr-2024 15:00Overcast Clouds5°C11 mph, NW100%10000m1015hPa65%